<?xml version="1.0" encoding="UTF-8" standalone="no" ?>
<gpx xmlns="http://www.topografix.com/GPX/1/1" xmlns:xsi="http://www.w3.org/2001/XMLSchema-instance" xsi:schemaLocation="http://www.topografix.com/GPX/1/1 http://www.topografix.com/GPX/1/1/gpx.xsd" version="1.1" creator="VisuGPX - https://www.visugpx.com">
  <metadata>
    <name>83-Ve-Salernes</name>
    <desc><![CDATA[grp_trc:]]></desc>
  </metadata>
  <trk>
    <name><![CDATA[Salernes St Bart 26 avr. 2023]]></name>
    <cmt><![CDATA[14:43:48]]></cmt>
    <desc><![CDATA[comment ...
Type : [nouvelles]
Type : [import]]]></desc>
    <trkseg>
      <trkpt lat="43.58418" lon="6.2331">
        <ele>360</ele>
        <time>2023-04-26T12:43:46Z</time>
      </trkpt>
      <trkpt lat="43.58418" lon="6.2331">
        <ele>360</ele>
        <time>2023-04-26T12:43:46Z</time>
      </trkpt>
      <trkpt lat="43.58415" lon="6.23322">
        <ele>356</ele>
        <time>2023-04-26T12:44:04Z</time>
      </trkpt>
      <trkpt lat="43.58401" lon="6.23329">
        <ele>353</ele>
        <time>2023-04-26T12:44:24Z</time>
      </trkpt>
      <trkpt lat="43.584" lon="6.23307">
        <ele>349</ele>
        <time>2023-04-26T12:45:11Z</time>
      </trkpt>
      <trkpt lat="43.58375" lon="6.23279">
        <ele>350</ele>
        <time>2023-04-26T12:45:59Z</time>
      </trkpt>
      <trkpt lat="43.58362" lon="6.23255">
        <ele>351</ele>
        <time>2023-04-26T12:46:24Z</time>
      </trkpt>
      <trkpt lat="43.58353" lon="6.23242">
        <ele>348</ele>
        <time>2023-04-26T12:46:37Z</time>
      </trkpt>
      <trkpt lat="43.58341" lon="6.2323">
        <ele>351</ele>
        <time>2023-04-26T12:46:57Z</time>
      </trkpt>
      <trkpt lat="43.58319" lon="6.23224">
        <ele>352</ele>
        <time>2023-04-26T12:47:19Z</time>
      </trkpt>
      <trkpt lat="43.58277" lon="6.23207">
        <ele>356</ele>
        <time>2023-04-26T12:47:57Z</time>
      </trkpt>
      <trkpt lat="43.58219" lon="6.23189">
        <ele>358</ele>
        <time>2023-04-26T12:48:47Z</time>
      </trkpt>
      <trkpt lat="43.58203" lon="6.23189">
        <ele>359</ele>
        <time>2023-04-26T12:48:58Z</time>
      </trkpt>
      <trkpt lat="43.58186" lon="6.23181">
        <ele>362</ele>
        <time>2023-04-26T12:49:17Z</time>
      </trkpt>
      <trkpt lat="43.58176" lon="6.23181">
        <ele>361</ele>
        <time>2023-04-26T12:49:38Z</time>
      </trkpt>
      <trkpt lat="43.58167" lon="6.23198">
        <ele>359</ele>
        <time>2023-04-26T12:50:01Z</time>
      </trkpt>
      <trkpt lat="43.58155" lon="6.23207">
        <ele>360</ele>
        <time>2023-04-26T12:50:18Z</time>
      </trkpt>
      <trkpt lat="43.58152" lon="6.23195">
        <ele>360</ele>
        <time>2023-04-26T12:51:01Z</time>
      </trkpt>
      <trkpt lat="43.58155" lon="6.23183">
        <ele>359</ele>
        <time>2023-04-26T12:51:18Z</time>
      </trkpt>
      <trkpt lat="43.58118" lon="6.23187">
        <ele>363</ele>
        <time>2023-04-26T12:52:12Z</time>
      </trkpt>
      <trkpt lat="43.5808" lon="6.23209">
        <ele>366</ele>
        <time>2023-04-26T12:53:11Z</time>
      </trkpt>
      <trkpt lat="43.58069" lon="6.23216">
        <ele>365</ele>
        <time>2023-04-26T12:53:24Z</time>
      </trkpt>
      <trkpt lat="43.58049" lon="6.2325">
        <ele>364</ele>
        <time>2023-04-26T12:53:58Z</time>
      </trkpt>
      <trkpt lat="43.5804" lon="6.23255">
        <ele>363</ele>
        <time>2023-04-26T12:54:41Z</time>
      </trkpt>
      <trkpt lat="43.58033" lon="6.23256">
        <ele>362</ele>
        <time>2023-04-26T12:55:36Z</time>
      </trkpt>
      <trkpt lat="43.58013" lon="6.23258">
        <ele>358</ele>
        <time>2023-04-26T12:56:19Z</time>
      </trkpt>
      <trkpt lat="43.57997" lon="6.23293">
        <ele>365</ele>
        <time>2023-04-26T12:57:04Z</time>
      </trkpt>
      <trkpt lat="43.57979" lon="6.23293">
        <ele>357</ele>
        <time>2023-04-26T12:58:00Z</time>
      </trkpt>
      <trkpt lat="43.57959" lon="6.23303">
        <ele>356</ele>
        <time>2023-04-26T12:58:44Z</time>
      </trkpt>
      <trkpt lat="43.57959" lon="6.23328">
        <ele>356</ele>
        <time>2023-04-26T12:59:10Z</time>
      </trkpt>
      <trkpt lat="43.57952" lon="6.23343">
        <ele>355</ele>
        <time>2023-04-26T12:59:22Z</time>
      </trkpt>
      <trkpt lat="43.57937" lon="6.23349">
        <ele>356</ele>
        <time>2023-04-26T12:59:37Z</time>
      </trkpt>
      <trkpt lat="43.57927" lon="6.23334">
        <ele>360</ele>
        <time>2023-04-26T12:59:58Z</time>
      </trkpt>
      <trkpt lat="43.57909" lon="6.23294">
        <ele>363</ele>
        <time>2023-04-26T13:01:00Z</time>
      </trkpt>
      <trkpt lat="43.57906" lon="6.23273">
        <ele>369</ele>
        <time>2023-04-26T13:01:18Z</time>
      </trkpt>
      <trkpt lat="43.57889" lon="6.23232">
        <ele>375</ele>
        <time>2023-04-26T13:01:54Z</time>
      </trkpt>
      <trkpt lat="43.57885" lon="6.23222">
        <ele>374</ele>
        <time>2023-04-26T13:02:03Z</time>
      </trkpt>
      <trkpt lat="43.57865" lon="6.23197">
        <ele>373</ele>
        <time>2023-04-26T13:02:32Z</time>
      </trkpt>
      <trkpt lat="43.57848" lon="6.23167">
        <ele>371</ele>
        <time>2023-04-26T13:03:11Z</time>
      </trkpt>
      <trkpt lat="43.57829" lon="6.23167">
        <ele>373</ele>
        <time>2023-04-26T13:03:34Z</time>
      </trkpt>
      <trkpt lat="43.57812" lon="6.23163">
        <ele>377</ele>
        <time>2023-04-26T13:03:50Z</time>
      </trkpt>
      <trkpt lat="43.57813" lon="6.23153">
        <ele>375</ele>
        <time>2023-04-26T13:04:20Z</time>
      </trkpt>
      <trkpt lat="43.57823" lon="6.23098">
        <ele>378</ele>
        <time>2023-04-26T13:05:08Z</time>
      </trkpt>
      <trkpt lat="43.57827" lon="6.23082">
        <ele>380</ele>
        <time>2023-04-26T13:05:21Z</time>
      </trkpt>
      <trkpt lat="43.5782" lon="6.23065">
        <ele>381</ele>
        <time>2023-04-26T13:06:02Z</time>
      </trkpt>
      <trkpt lat="43.57812" lon="6.23058">
        <ele>387</ele>
        <time>2023-04-26T13:06:13Z</time>
      </trkpt>
      <trkpt lat="43.57796" lon="6.23047">
        <ele>389</ele>
        <time>2023-04-26T13:07:48Z</time>
      </trkpt>
      <trkpt lat="43.57787" lon="6.23038">
        <ele>391</ele>
        <time>2023-04-26T13:08:21Z</time>
      </trkpt>
      <trkpt lat="43.57789" lon="6.23024">
        <ele>394</ele>
        <time>2023-04-26T13:08:43Z</time>
      </trkpt>
      <trkpt lat="43.57784" lon="6.23012">
        <ele>396</ele>
        <time>2023-04-26T13:08:54Z</time>
      </trkpt>
      <trkpt lat="43.57783" lon="6.23">
        <ele>398</ele>
        <time>2023-04-26T13:09:08Z</time>
      </trkpt>
      <trkpt lat="43.57779" lon="6.22981">
        <ele>398</ele>
        <time>2023-04-26T13:09:33Z</time>
      </trkpt>
      <trkpt lat="43.57777" lon="6.22931">
        <ele>404</ele>
        <time>2023-04-26T13:10:23Z</time>
      </trkpt>
      <trkpt lat="43.57776" lon="6.22917">
        <ele>406</ele>
        <time>2023-04-26T13:10:35Z</time>
      </trkpt>
      <trkpt lat="43.57754" lon="6.22901">
        <ele>409</ele>
        <time>2023-04-26T13:11:07Z</time>
      </trkpt>
      <trkpt lat="43.57755" lon="6.22888">
        <ele>409</ele>
        <time>2023-04-26T13:11:17Z</time>
      </trkpt>
      <trkpt lat="43.5776" lon="6.22876">
        <ele>408</ele>
        <time>2023-04-26T13:13:56Z</time>
      </trkpt>
      <trkpt lat="43.5777" lon="6.22849">
        <ele>404</ele>
        <time>2023-04-26T13:14:28Z</time>
      </trkpt>
      <trkpt lat="43.57787" lon="6.22788">
        <ele>406</ele>
        <time>2023-04-26T13:15:06Z</time>
      </trkpt>
      <trkpt lat="43.57812" lon="6.22746">
        <ele>405</ele>
        <time>2023-04-26T13:15:45Z</time>
      </trkpt>
      <trkpt lat="43.57828" lon="6.22728">
        <ele>404</ele>
        <time>2023-04-26T13:16:19Z</time>
      </trkpt>
      <trkpt lat="43.57845" lon="6.22703">
        <ele>407</ele>
        <time>2023-04-26T13:16:56Z</time>
      </trkpt>
      <trkpt lat="43.5785" lon="6.22695">
        <ele>408</ele>
        <time>2023-04-26T13:17:01Z</time>
      </trkpt>
      <trkpt lat="43.57893" lon="6.22666">
        <ele>408</ele>
        <time>2023-04-26T13:17:38Z</time>
      </trkpt>
      <trkpt lat="43.57902" lon="6.22664">
        <ele>408</ele>
        <time>2023-04-26T13:17:46Z</time>
      </trkpt>
      <trkpt lat="43.57918" lon="6.22663">
        <ele>411</ele>
        <time>2023-04-26T13:18:01Z</time>
      </trkpt>
      <trkpt lat="43.5795" lon="6.22665">
        <ele>413</ele>
        <time>2023-04-26T13:18:41Z</time>
      </trkpt>
      <trkpt lat="43.57959" lon="6.22666">
        <ele>414</ele>
        <time>2023-04-26T13:18:50Z</time>
      </trkpt>
      <trkpt lat="43.57966" lon="6.22671">
        <ele>416</ele>
        <time>2023-04-26T13:18:58Z</time>
      </trkpt>
      <trkpt lat="43.57996" lon="6.22681">
        <ele>417</ele>
        <time>2023-04-26T13:19:24Z</time>
      </trkpt>
      <trkpt lat="43.58006" lon="6.22676">
        <ele>416</ele>
        <time>2023-04-26T13:19:37Z</time>
      </trkpt>
      <trkpt lat="43.58033" lon="6.22678">
        <ele>415</ele>
        <time>2023-04-26T13:20:10Z</time>
      </trkpt>
      <trkpt lat="43.58043" lon="6.22676">
        <ele>416</ele>
        <time>2023-04-26T13:20:15Z</time>
      </trkpt>
      <trkpt lat="43.58073" lon="6.22667">
        <ele>419</ele>
        <time>2023-04-26T13:20:50Z</time>
      </trkpt>
      <trkpt lat="43.58129" lon="6.22684">
        <ele>420</ele>
        <time>2023-04-26T13:21:47Z</time>
      </trkpt>
      <trkpt lat="43.5814" lon="6.22685">
        <ele>422</ele>
        <time>2023-04-26T13:21:58Z</time>
      </trkpt>
      <trkpt lat="43.58156" lon="6.22688">
        <ele>428</ele>
        <time>2023-04-26T13:22:19Z</time>
      </trkpt>
      <trkpt lat="43.58167" lon="6.22693">
        <ele>431</ele>
        <time>2023-04-26T13:22:32Z</time>
      </trkpt>
      <trkpt lat="43.58176" lon="6.22701">
        <ele>433</ele>
        <time>2023-04-26T13:22:39Z</time>
      </trkpt>
      <trkpt lat="43.58182" lon="6.22708">
        <ele>439</ele>
        <time>2023-04-26T13:22:48Z</time>
      </trkpt>
      <trkpt lat="43.58189" lon="6.22709">
        <ele>439</ele>
        <time>2023-04-26T13:22:55Z</time>
      </trkpt>
      <trkpt lat="43.58206" lon="6.2272">
        <ele>439</ele>
        <time>2023-04-26T13:23:06Z</time>
      </trkpt>
      <trkpt lat="43.58248" lon="6.22717">
        <ele>444</ele>
        <time>2023-04-26T13:23:38Z</time>
      </trkpt>
      <trkpt lat="43.58265" lon="6.22709">
        <ele>443</ele>
        <time>2023-04-26T13:23:59Z</time>
      </trkpt>
      <trkpt lat="43.58274" lon="6.22714">
        <ele>430</ele>
        <time>2023-04-26T13:27:06Z</time>
      </trkpt>
      <trkpt lat="43.58286" lon="6.22724">
        <ele>430</ele>
        <time>2023-04-26T13:27:18Z</time>
      </trkpt>
      <trkpt lat="43.58322" lon="6.2273">
        <ele>424</ele>
        <time>2023-04-26T13:27:58Z</time>
      </trkpt>
      <trkpt lat="43.58352" lon="6.22738">
        <ele>426</ele>
        <time>2023-04-26T13:28:34Z</time>
      </trkpt>
      <trkpt lat="43.58367" lon="6.22746">
        <ele>429</ele>
        <time>2023-04-26T13:28:56Z</time>
      </trkpt>
      <trkpt lat="43.58386" lon="6.22751">
        <ele>427</ele>
        <time>2023-04-26T13:29:31Z</time>
      </trkpt>
      <trkpt lat="43.58431" lon="6.22742">
        <ele>425</ele>
        <time>2023-04-26T13:30:20Z</time>
      </trkpt>
      <trkpt lat="43.58458" lon="6.22741">
        <ele>425</ele>
        <time>2023-04-26T13:30:40Z</time>
      </trkpt>
      <trkpt lat="43.58472" lon="6.22739">
        <ele>430</ele>
        <time>2023-04-26T13:33:56Z</time>
      </trkpt>
      <trkpt lat="43.58497" lon="6.22754">
        <ele>432</ele>
        <time>2023-04-26T13:34:51Z</time>
      </trkpt>
      <trkpt lat="43.58502" lon="6.22767">
        <ele>430</ele>
        <time>2023-04-26T13:35:03Z</time>
      </trkpt>
      <trkpt lat="43.58509" lon="6.22775">
        <ele>429</ele>
        <time>2023-04-26T13:35:18Z</time>
      </trkpt>
      <trkpt lat="43.58522" lon="6.22779">
        <ele>426</ele>
        <time>2023-04-26T13:36:00Z</time>
      </trkpt>
      <trkpt lat="43.58546" lon="6.22768">
        <ele>428</ele>
        <time>2023-04-26T13:36:29Z</time>
      </trkpt>
      <trkpt lat="43.58552" lon="6.22758">
        <ele>430</ele>
        <time>2023-04-26T13:36:38Z</time>
      </trkpt>
      <trkpt lat="43.58561" lon="6.22751">
        <ele>432</ele>
        <time>2023-04-26T13:36:47Z</time>
      </trkpt>
      <trkpt lat="43.58569" lon="6.22747">
        <ele>435</ele>
        <time>2023-04-26T13:36:54Z</time>
      </trkpt>
      <trkpt lat="43.58587" lon="6.2272">
        <ele>436</ele>
        <time>2023-04-26T13:37:16Z</time>
      </trkpt>
      <trkpt lat="43.58595" lon="6.22714">
        <ele>436</ele>
        <time>2023-04-26T13:37:25Z</time>
      </trkpt>
      <trkpt lat="43.58618" lon="6.2272">
        <ele>437</ele>
        <time>2023-04-26T13:37:53Z</time>
      </trkpt>
      <trkpt lat="43.58629" lon="6.22707">
        <ele>436</ele>
        <time>2023-04-26T13:38:04Z</time>
      </trkpt>
      <trkpt lat="43.58633" lon="6.22697">
        <ele>436</ele>
        <time>2023-04-26T13:38:13Z</time>
      </trkpt>
      <trkpt lat="43.58642" lon="6.22694">
        <ele>438</ele>
        <time>2023-04-26T13:38:27Z</time>
      </trkpt>
      <trkpt lat="43.58642" lon="6.22707">
        <ele>439</ele>
        <time>2023-04-26T13:38:37Z</time>
      </trkpt>
      <trkpt lat="43.58646" lon="6.22718">
        <ele>436</ele>
        <time>2023-04-26T13:38:45Z</time>
      </trkpt>
      <trkpt lat="43.58674" lon="6.22699">
        <ele>432</ele>
        <time>2023-04-26T13:39:08Z</time>
      </trkpt>
      <trkpt lat="43.58679" lon="6.22685">
        <ele>431</ele>
        <time>2023-04-26T13:39:17Z</time>
      </trkpt>
      <trkpt lat="43.58688" lon="6.22678">
        <ele>430</ele>
        <time>2023-04-26T13:39:26Z</time>
      </trkpt>
      <trkpt lat="43.58709" lon="6.22675">
        <ele>430</ele>
        <time>2023-04-26T13:39:46Z</time>
      </trkpt>
      <trkpt lat="43.58714" lon="6.22661">
        <ele>430</ele>
        <time>2023-04-26T13:40:00Z</time>
      </trkpt>
      <trkpt lat="43.58725" lon="6.22658">
        <ele>429</ele>
        <time>2023-04-26T13:40:11Z</time>
      </trkpt>
      <trkpt lat="43.58747" lon="6.22661">
        <ele>429</ele>
        <time>2023-04-26T13:40:38Z</time>
      </trkpt>
      <trkpt lat="43.58772" lon="6.22661">
        <ele>431</ele>
        <time>2023-04-26T13:41:00Z</time>
      </trkpt>
      <trkpt lat="43.58809" lon="6.22643">
        <ele>430</ele>
        <time>2023-04-26T13:41:32Z</time>
      </trkpt>
      <trkpt lat="43.58826" lon="6.22643">
        <ele>430</ele>
        <time>2023-04-26T13:41:48Z</time>
      </trkpt>
      <trkpt lat="43.58846" lon="6.22638">
        <ele>431</ele>
        <time>2023-04-26T13:42:35Z</time>
      </trkpt>
      <trkpt lat="43.58861" lon="6.22634">
        <ele>431</ele>
        <time>2023-04-26T13:42:49Z</time>
      </trkpt>
      <trkpt lat="43.5888" lon="6.22626">
        <ele>434</ele>
        <time>2023-04-26T13:43:03Z</time>
      </trkpt>
      <trkpt lat="43.58897" lon="6.22636">
        <ele>433</ele>
        <time>2023-04-26T13:43:51Z</time>
      </trkpt>
      <trkpt lat="43.58919" lon="6.22642">
        <ele>433</ele>
        <time>2023-04-26T13:44:25Z</time>
      </trkpt>
      <trkpt lat="43.58929" lon="6.22641">
        <ele>434</ele>
        <time>2023-04-26T13:44:32Z</time>
      </trkpt>
      <trkpt lat="43.58949" lon="6.22593">
        <ele>433</ele>
        <time>2023-04-26T13:45:05Z</time>
      </trkpt>
      <trkpt lat="43.58975" lon="6.22566">
        <ele>437</ele>
        <time>2023-04-26T13:45:36Z</time>
      </trkpt>
      <trkpt lat="43.59007" lon="6.22553">
        <ele>439</ele>
        <time>2023-04-26T13:46:11Z</time>
      </trkpt>
      <trkpt lat="43.59032" lon="6.22547">
        <ele>439</ele>
        <time>2023-04-26T13:46:34Z</time>
      </trkpt>
      <trkpt lat="43.59053" lon="6.22526">
        <ele>439</ele>
        <time>2023-04-26T13:46:58Z</time>
      </trkpt>
      <trkpt lat="43.59066" lon="6.22512">
        <ele>442</ele>
        <time>2023-04-26T13:47:16Z</time>
      </trkpt>
      <trkpt lat="43.59074" lon="6.22508">
        <ele>441</ele>
        <time>2023-04-26T13:47:27Z</time>
      </trkpt>
      <trkpt lat="43.59082" lon="6.22506">
        <ele>439</ele>
        <time>2023-04-26T13:47:46Z</time>
      </trkpt>
      <trkpt lat="43.59105" lon="6.22491">
        <ele>433</ele>
        <time>2023-04-26T13:48:17Z</time>
      </trkpt>
      <trkpt lat="43.59123" lon="6.22481">
        <ele>433</ele>
        <time>2023-04-26T13:48:43Z</time>
      </trkpt>
      <trkpt lat="43.59182" lon="6.22503">
        <ele>432</ele>
        <time>2023-04-26T13:49:44Z</time>
      </trkpt>
      <trkpt lat="43.59192" lon="6.22506">
        <ele>432</ele>
        <time>2023-04-26T13:49:52Z</time>
      </trkpt>
      <trkpt lat="43.59231" lon="6.22527">
        <ele>436</ele>
        <time>2023-04-26T13:50:36Z</time>
      </trkpt>
      <trkpt lat="43.59239" lon="6.22533">
        <ele>435</ele>
        <time>2023-04-26T13:50:46Z</time>
      </trkpt>
      <trkpt lat="43.59261" lon="6.22543">
        <ele>437</ele>
        <time>2023-04-26T13:51:01Z</time>
      </trkpt>
      <trkpt lat="43.59281" lon="6.22549">
        <ele>439</ele>
        <time>2023-04-26T13:51:36Z</time>
      </trkpt>
      <trkpt lat="43.59305" lon="6.2255">
        <ele>446</ele>
        <time>2023-04-26T13:52:06Z</time>
      </trkpt>
      <trkpt lat="43.59324" lon="6.22549">
        <ele>447</ele>
        <time>2023-04-26T13:52:27Z</time>
      </trkpt>
      <trkpt lat="43.59365" lon="6.22538">
        <ele>452</ele>
        <time>2023-04-26T13:53:00Z</time>
      </trkpt>
      <trkpt lat="43.59379" lon="6.2253">
        <ele>454</ele>
        <time>2023-04-26T13:53:13Z</time>
      </trkpt>
      <trkpt lat="43.59386" lon="6.22519">
        <ele>455</ele>
        <time>2023-04-26T13:53:30Z</time>
      </trkpt>
      <trkpt lat="43.59409" lon="6.22493">
        <ele>457</ele>
        <time>2023-04-26T13:53:57Z</time>
      </trkpt>
      <trkpt lat="43.59416" lon="6.22485">
        <ele>459</ele>
        <time>2023-04-26T13:54:08Z</time>
      </trkpt>
      <trkpt lat="43.59422" lon="6.22474">
        <ele>461</ele>
        <time>2023-04-26T13:54:19Z</time>
      </trkpt>
      <trkpt lat="43.59443" lon="6.22455">
        <ele>462</ele>
        <time>2023-04-26T13:54:41Z</time>
      </trkpt>
      <trkpt lat="43.59461" lon="6.22446">
        <ele>463</ele>
        <time>2023-04-26T13:54:59Z</time>
      </trkpt>
      <trkpt lat="43.59482" lon="6.22452">
        <ele>462</ele>
        <time>2023-04-26T13:55:34Z</time>
      </trkpt>
      <trkpt lat="43.59508" lon="6.22467">
        <ele>463</ele>
        <time>2023-04-26T13:55:58Z</time>
      </trkpt>
      <trkpt lat="43.59522" lon="6.22482">
        <ele>466</ele>
        <time>2023-04-26T13:56:11Z</time>
      </trkpt>
      <trkpt lat="43.59527" lon="6.22491">
        <ele>466</ele>
        <time>2023-04-26T13:56:17Z</time>
      </trkpt>
      <trkpt lat="43.5955" lon="6.22514">
        <ele>467</ele>
        <time>2023-04-26T13:56:45Z</time>
      </trkpt>
      <trkpt lat="43.59562" lon="6.22521">
        <ele>470</ele>
        <time>2023-04-26T13:56:55Z</time>
      </trkpt>
      <trkpt lat="43.59585" lon="6.22535">
        <ele>473</ele>
        <time>2023-04-26T13:57:15Z</time>
      </trkpt>
      <trkpt lat="43.59626" lon="6.22549">
        <ele>475</ele>
        <time>2023-04-26T13:57:49Z</time>
      </trkpt>
      <trkpt lat="43.59664" lon="6.22567">
        <ele>476</ele>
        <time>2023-04-26T13:58:25Z</time>
      </trkpt>
      <trkpt lat="43.59702" lon="6.22582">
        <ele>478</ele>
        <time>2023-04-26T13:59:00Z</time>
      </trkpt>
      <trkpt lat="43.59668" lon="6.22638">
        <ele>477</ele>
        <time>2023-04-26T14:00:41Z</time>
      </trkpt>
      <trkpt lat="43.59629" lon="6.22673">
        <ele>477</ele>
        <time>2023-04-26T14:01:18Z</time>
      </trkpt>
      <trkpt lat="43.59592" lon="6.22681">
        <ele>478</ele>
        <time>2023-04-26T14:01:49Z</time>
      </trkpt>
      <trkpt lat="43.59585" lon="6.22673">
        <ele>478</ele>
        <time>2023-04-26T14:01:59Z</time>
      </trkpt>
      <trkpt lat="43.59564" lon="6.22658">
        <ele>477</ele>
        <time>2023-04-26T14:02:22Z</time>
      </trkpt>
      <trkpt lat="43.59554" lon="6.22664">
        <ele>478</ele>
        <time>2023-04-26T14:02:35Z</time>
      </trkpt>
      <trkpt lat="43.59545" lon="6.22675">
        <ele>479</ele>
        <time>2023-04-26T14:02:48Z</time>
      </trkpt>
      <trkpt lat="43.59505" lon="6.22696">
        <ele>482</ele>
        <time>2023-04-26T14:03:29Z</time>
      </trkpt>
      <trkpt lat="43.59467" lon="6.22695">
        <ele>481</ele>
        <time>2023-04-26T14:04:00Z</time>
      </trkpt>
      <trkpt lat="43.59458" lon="6.22699">
        <ele>482</ele>
        <time>2023-04-26T14:05:08Z</time>
      </trkpt>
      <trkpt lat="43.59449" lon="6.22702">
        <ele>480</ele>
        <time>2023-04-26T14:05:18Z</time>
      </trkpt>
      <trkpt lat="43.5942" lon="6.22693">
        <ele>479</ele>
        <time>2023-04-26T14:05:48Z</time>
      </trkpt>
      <trkpt lat="43.59393" lon="6.22698">
        <ele>478</ele>
        <time>2023-04-26T14:06:12Z</time>
      </trkpt>
      <trkpt lat="43.59312" lon="6.22714">
        <ele>475</ele>
        <time>2023-04-26T14:07:19Z</time>
      </trkpt>
      <trkpt lat="43.59283" lon="6.22709">
        <ele>474</ele>
        <time>2023-04-26T14:07:45Z</time>
      </trkpt>
      <trkpt lat="43.59267" lon="6.22694">
        <ele>469</ele>
        <time>2023-04-26T14:11:14Z</time>
      </trkpt>
      <trkpt lat="43.59255" lon="6.227">
        <ele>468</ele>
        <time>2023-04-26T14:11:29Z</time>
      </trkpt>
      <trkpt lat="43.5923" lon="6.22704">
        <ele>468</ele>
        <time>2023-04-26T14:11:47Z</time>
      </trkpt>
      <trkpt lat="43.59212" lon="6.22692">
        <ele>470</ele>
        <time>2023-04-26T14:12:06Z</time>
      </trkpt>
      <trkpt lat="43.59183" lon="6.22653">
        <ele>468</ele>
        <time>2023-04-26T14:12:42Z</time>
      </trkpt>
      <trkpt lat="43.59171" lon="6.22639">
        <ele>468</ele>
        <time>2023-04-26T14:13:04Z</time>
      </trkpt>
      <trkpt lat="43.59165" lon="6.22614">
        <ele>463</ele>
        <time>2023-04-26T14:25:02Z</time>
      </trkpt>
      <trkpt lat="43.59143" lon="6.22611">
        <ele>460</ele>
        <time>2023-04-26T14:30:34Z</time>
      </trkpt>
      <trkpt lat="43.5913" lon="6.22629">
        <ele>462</ele>
        <time>2023-04-26T14:31:11Z</time>
      </trkpt>
      <trkpt lat="43.59123" lon="6.22662">
        <ele>464</ele>
        <time>2023-04-26T14:31:30Z</time>
      </trkpt>
      <trkpt lat="43.59122" lon="6.22676">
        <ele>464</ele>
        <time>2023-04-26T14:31:43Z</time>
      </trkpt>
      <trkpt lat="43.59133" lon="6.22706">
        <ele>465</ele>
        <time>2023-04-26T14:33:05Z</time>
      </trkpt>
      <trkpt lat="43.59144" lon="6.22733">
        <ele>463</ele>
        <time>2023-04-26T14:34:01Z</time>
      </trkpt>
      <trkpt lat="43.59154" lon="6.22746">
        <ele>466</ele>
        <time>2023-04-26T14:34:21Z</time>
      </trkpt>
      <trkpt lat="43.59161" lon="6.22768">
        <ele>467</ele>
        <time>2023-04-26T14:34:52Z</time>
      </trkpt>
      <trkpt lat="43.59179" lon="6.22806">
        <ele>467</ele>
        <time>2023-04-26T14:35:19Z</time>
      </trkpt>
      <trkpt lat="43.59182" lon="6.22825">
        <ele>470</ele>
        <time>2023-04-26T14:35:37Z</time>
      </trkpt>
      <trkpt lat="43.59159" lon="6.22859">
        <ele>472</ele>
        <time>2023-04-26T14:36:15Z</time>
      </trkpt>
      <trkpt lat="43.59143" lon="6.22905">
        <ele>472</ele>
        <time>2023-04-26T14:36:46Z</time>
      </trkpt>
      <trkpt lat="43.59122" lon="6.22932">
        <ele>473</ele>
        <time>2023-04-26T14:37:25Z</time>
      </trkpt>
      <trkpt lat="43.59107" lon="6.22935">
        <ele>472</ele>
        <time>2023-04-26T14:37:42Z</time>
      </trkpt>
      <trkpt lat="43.591" lon="6.22944">
        <ele>472</ele>
        <time>2023-04-26T14:38:21Z</time>
      </trkpt>
      <trkpt lat="43.59098" lon="6.22964">
        <ele>472</ele>
        <time>2023-04-26T14:38:45Z</time>
      </trkpt>
      <trkpt lat="43.59077" lon="6.22981">
        <ele>469</ele>
        <time>2023-04-26T14:38:54Z</time>
      </trkpt>
      <trkpt lat="43.59058" lon="6.22989">
        <ele>466</ele>
        <time>2023-04-26T14:39:24Z</time>
      </trkpt>
      <trkpt lat="43.59024" lon="6.22994">
        <ele>465</ele>
        <time>2023-04-26T14:39:58Z</time>
      </trkpt>
      <trkpt lat="43.59014" lon="6.22995">
        <ele>464</ele>
        <time>2023-04-26T14:40:07Z</time>
      </trkpt>
      <trkpt lat="43.58997" lon="6.22991">
        <ele>464</ele>
        <time>2023-04-26T14:40:37Z</time>
      </trkpt>
      <trkpt lat="43.58987" lon="6.22993">
        <ele>465</ele>
        <time>2023-04-26T14:40:43Z</time>
      </trkpt>
      <trkpt lat="43.58979" lon="6.22998">
        <ele>464</ele>
        <time>2023-04-26T14:40:51Z</time>
      </trkpt>
      <trkpt lat="43.58971" lon="6.23005">
        <ele>462</ele>
        <time>2023-04-26T14:41:22Z</time>
      </trkpt>
      <trkpt lat="43.58934" lon="6.23006">
        <ele>459</ele>
        <time>2023-04-26T14:41:52Z</time>
      </trkpt>
      <trkpt lat="43.5891" lon="6.22997">
        <ele>461</ele>
        <time>2023-04-26T14:42:12Z</time>
      </trkpt>
      <trkpt lat="43.58903" lon="6.23007">
        <ele>460</ele>
        <time>2023-04-26T14:44:05Z</time>
      </trkpt>
      <trkpt lat="43.58894" lon="6.23016">
        <ele>458</ele>
        <time>2023-04-26T14:44:18Z</time>
      </trkpt>
      <trkpt lat="43.58879" lon="6.23019">
        <ele>456</ele>
        <time>2023-04-26T14:44:32Z</time>
      </trkpt>
      <trkpt lat="43.58869" lon="6.23018">
        <ele>455</ele>
        <time>2023-04-26T14:44:48Z</time>
      </trkpt>
      <trkpt lat="43.58859" lon="6.23025">
        <ele>454</ele>
        <time>2023-04-26T14:44:55Z</time>
      </trkpt>
      <trkpt lat="43.58853" lon="6.23033">
        <ele>454</ele>
        <time>2023-04-26T14:45:03Z</time>
      </trkpt>
      <trkpt lat="43.58848" lon="6.23044">
        <ele>453</ele>
        <time>2023-04-26T14:45:14Z</time>
      </trkpt>
      <trkpt lat="43.58839" lon="6.23041">
        <ele>451</ele>
        <time>2023-04-26T14:45:59Z</time>
      </trkpt>
      <trkpt lat="43.58831" lon="6.2305">
        <ele>449</ele>
        <time>2023-04-26T14:46:06Z</time>
      </trkpt>
      <trkpt lat="43.58822" lon="6.23047">
        <ele>447</ele>
        <time>2023-04-26T14:46:16Z</time>
      </trkpt>
      <trkpt lat="43.58813" lon="6.23044">
        <ele>444</ele>
        <time>2023-04-26T14:46:30Z</time>
      </trkpt>
      <trkpt lat="43.58804" lon="6.23043">
        <ele>443</ele>
        <time>2023-04-26T14:46:47Z</time>
      </trkpt>
      <trkpt lat="43.58796" lon="6.23048">
        <ele>441</ele>
        <time>2023-04-26T14:46:56Z</time>
      </trkpt>
      <trkpt lat="43.58788" lon="6.23056">
        <ele>440</ele>
        <time>2023-04-26T14:47:06Z</time>
      </trkpt>
      <trkpt lat="43.58768" lon="6.2307">
        <ele>438</ele>
        <time>2023-04-26T14:47:28Z</time>
      </trkpt>
      <trkpt lat="43.58755" lon="6.23085">
        <ele>438</ele>
        <time>2023-04-26T14:47:45Z</time>
      </trkpt>
      <trkpt lat="43.58747" lon="6.23089">
        <ele>438</ele>
        <time>2023-04-26T14:47:55Z</time>
      </trkpt>
      <trkpt lat="43.5874" lon="6.23098">
        <ele>437</ele>
        <time>2023-04-26T14:48:05Z</time>
      </trkpt>
      <trkpt lat="43.58728" lon="6.23106">
        <ele>437</ele>
        <time>2023-04-26T14:48:20Z</time>
      </trkpt>
      <trkpt lat="43.58714" lon="6.23105">
        <ele>435</ele>
        <time>2023-04-26T14:48:34Z</time>
      </trkpt>
      <trkpt lat="43.5871" lon="6.23095">
        <ele>434</ele>
        <time>2023-04-26T14:48:45Z</time>
      </trkpt>
      <trkpt lat="43.58704" lon="6.23089">
        <ele>433</ele>
        <time>2023-04-26T14:49:49Z</time>
      </trkpt>
      <trkpt lat="43.58697" lon="6.23081">
        <ele>433</ele>
        <time>2023-04-26T14:50:04Z</time>
      </trkpt>
      <trkpt lat="43.58687" lon="6.23081">
        <ele>435</ele>
        <time>2023-04-26T14:50:19Z</time>
      </trkpt>
      <trkpt lat="43.58667" lon="6.23089">
        <ele>435</ele>
        <time>2023-04-26T14:50:39Z</time>
      </trkpt>
      <trkpt lat="43.58657" lon="6.2309">
        <ele>434</ele>
        <time>2023-04-26T14:50:46Z</time>
      </trkpt>
      <trkpt lat="43.58638" lon="6.23096">
        <ele>435</ele>
        <time>2023-04-26T14:52:11Z</time>
      </trkpt>
      <trkpt lat="43.58641" lon="6.23084">
        <ele>437</ele>
        <time>2023-04-26T14:53:03Z</time>
      </trkpt>
      <trkpt lat="43.58649" lon="6.23088">
        <ele>437</ele>
        <time>2023-04-26T14:54:09Z</time>
      </trkpt>
      <trkpt lat="43.58667" lon="6.23087">
        <ele>439</ele>
        <time>2023-04-26T14:54:43Z</time>
      </trkpt>
      <trkpt lat="43.5869" lon="6.23082">
        <ele>441</ele>
        <time>2023-04-26T14:55:16Z</time>
      </trkpt>
      <trkpt lat="43.58705" lon="6.23087">
        <ele>442</ele>
        <time>2023-04-26T14:55:38Z</time>
      </trkpt>
      <trkpt lat="43.5871" lon="6.23099">
        <ele>442</ele>
        <time>2023-04-26T14:55:51Z</time>
      </trkpt>
      <trkpt lat="43.58721" lon="6.23103">
        <ele>441</ele>
        <time>2023-04-26T14:56:04Z</time>
      </trkpt>
      <trkpt lat="43.58743" lon="6.23091">
        <ele>442</ele>
        <time>2023-04-26T14:59:29Z</time>
      </trkpt>
      <trkpt lat="43.58781" lon="6.23058">
        <ele>445</ele>
        <time>2023-04-26T15:00:12Z</time>
      </trkpt>
      <trkpt lat="43.58803" lon="6.23039">
        <ele>449</ele>
        <time>2023-04-26T15:00:29Z</time>
      </trkpt>
      <trkpt lat="43.58813" lon="6.23036">
        <ele>451</ele>
        <time>2023-04-26T15:00:42Z</time>
      </trkpt>
      <trkpt lat="43.58821" lon="6.23043">
        <ele>451</ele>
        <time>2023-04-26T15:00:54Z</time>
      </trkpt>
      <trkpt lat="43.58831" lon="6.23044">
        <ele>455</ele>
        <time>2023-04-26T15:01:21Z</time>
      </trkpt>
      <trkpt lat="43.5884" lon="6.23038">
        <ele>458</ele>
        <time>2023-04-26T15:01:35Z</time>
      </trkpt>
      <trkpt lat="43.58849" lon="6.23031">
        <ele>460</ele>
        <time>2023-04-26T15:01:51Z</time>
      </trkpt>
      <trkpt lat="43.5886" lon="6.23017">
        <ele>462</ele>
        <time>2023-04-26T15:02:08Z</time>
      </trkpt>
      <trkpt lat="43.58871" lon="6.23013">
        <ele>464</ele>
        <time>2023-04-26T15:02:24Z</time>
      </trkpt>
      <trkpt lat="43.58878" lon="6.23017">
        <ele>463</ele>
        <time>2023-04-26T15:02:32Z</time>
      </trkpt>
      <trkpt lat="43.5889" lon="6.23015">
        <ele>463</ele>
        <time>2023-04-26T15:02:46Z</time>
      </trkpt>
      <trkpt lat="43.58898" lon="6.23008">
        <ele>465</ele>
        <time>2023-04-26T15:03:02Z</time>
      </trkpt>
      <trkpt lat="43.58902" lon="6.22997">
        <ele>465</ele>
        <time>2023-04-26T15:03:58Z</time>
      </trkpt>
      <trkpt lat="43.58893" lon="6.22947">
        <ele>466</ele>
        <time>2023-04-26T15:04:33Z</time>
      </trkpt>
      <trkpt lat="43.58891" lon="6.22934">
        <ele>467</ele>
        <time>2023-04-26T15:04:42Z</time>
      </trkpt>
      <trkpt lat="43.58883" lon="6.22922">
        <ele>466</ele>
        <time>2023-04-26T15:04:56Z</time>
      </trkpt>
      <trkpt lat="43.58881" lon="6.22902">
        <ele>464</ele>
        <time>2023-04-26T15:05:20Z</time>
      </trkpt>
      <trkpt lat="43.58887" lon="6.22883">
        <ele>465</ele>
        <time>2023-04-26T15:05:48Z</time>
      </trkpt>
      <trkpt lat="43.58882" lon="6.22867">
        <ele>465</ele>
        <time>2023-04-26T15:06:00Z</time>
      </trkpt>
      <trkpt lat="43.58875" lon="6.2286">
        <ele>464</ele>
        <time>2023-04-26T15:06:12Z</time>
      </trkpt>
      <trkpt lat="43.5887" lon="6.22848">
        <ele>462</ele>
        <time>2023-04-26T15:06:32Z</time>
      </trkpt>
      <trkpt lat="43.5886" lon="6.22836">
        <ele>456</ele>
        <time>2023-04-26T15:06:49Z</time>
      </trkpt>
      <trkpt lat="43.58856" lon="6.22823">
        <ele>450</ele>
        <time>2023-04-26T15:07:26Z</time>
      </trkpt>
      <trkpt lat="43.58849" lon="6.22814">
        <ele>444</ele>
        <time>2023-04-26T15:07:54Z</time>
      </trkpt>
      <trkpt lat="43.58839" lon="6.22812">
        <ele>441</ele>
        <time>2023-04-26T15:08:29Z</time>
      </trkpt>
      <trkpt lat="43.58834" lon="6.22796">
        <ele>438</ele>
        <time>2023-04-26T15:08:42Z</time>
      </trkpt>
      <trkpt lat="43.58836" lon="6.22781">
        <ele>436</ele>
        <time>2023-04-26T15:08:54Z</time>
      </trkpt>
      <trkpt lat="43.58831" lon="6.22768">
        <ele>435</ele>
        <time>2023-04-26T15:09:08Z</time>
      </trkpt>
      <trkpt lat="43.5883" lon="6.22756">
        <ele>435</ele>
        <time>2023-04-26T15:09:39Z</time>
      </trkpt>
      <trkpt lat="43.58833" lon="6.22731">
        <ele>434</ele>
        <time>2023-04-26T15:10:46Z</time>
      </trkpt>
      <trkpt lat="43.58821" lon="6.22732">
        <ele>429</ele>
        <time>2023-04-26T15:11:54Z</time>
      </trkpt>
      <trkpt lat="43.58814" lon="6.22745">
        <ele>426</ele>
        <time>2023-04-26T15:12:15Z</time>
      </trkpt>
      <trkpt lat="43.5881" lon="6.2276">
        <ele>425</ele>
        <time>2023-04-26T15:12:30Z</time>
      </trkpt>
      <trkpt lat="43.58811" lon="6.22772">
        <ele>424</ele>
        <time>2023-04-26T15:12:43Z</time>
      </trkpt>
      <trkpt lat="43.58808" lon="6.22803">
        <ele>422</ele>
        <time>2023-04-26T15:13:07Z</time>
      </trkpt>
      <trkpt lat="43.58807" lon="6.22846">
        <ele>417</ele>
        <time>2023-04-26T15:13:37Z</time>
      </trkpt>
      <trkpt lat="43.58807" lon="6.22861">
        <ele>415</ele>
        <time>2023-04-26T15:13:48Z</time>
      </trkpt>
      <trkpt lat="43.58798" lon="6.22883">
        <ele>410</ele>
        <time>2023-04-26T15:14:09Z</time>
      </trkpt>
      <trkpt lat="43.58767" lon="6.22912">
        <ele>409</ele>
        <time>2023-04-26T15:14:50Z</time>
      </trkpt>
      <trkpt lat="43.58758" lon="6.22922">
        <ele>406</ele>
        <time>2023-04-26T15:15:00Z</time>
      </trkpt>
      <trkpt lat="43.58737" lon="6.22954">
        <ele>403</ele>
        <time>2023-04-26T15:15:42Z</time>
      </trkpt>
      <trkpt lat="43.5873" lon="6.22965">
        <ele>401</ele>
        <time>2023-04-26T15:15:52Z</time>
      </trkpt>
      <trkpt lat="43.58722" lon="6.22972">
        <ele>398</ele>
        <time>2023-04-26T15:16:22Z</time>
      </trkpt>
      <trkpt lat="43.58708" lon="6.22976">
        <ele>395</ele>
        <time>2023-04-26T15:16:38Z</time>
      </trkpt>
      <trkpt lat="43.587" lon="6.22974">
        <ele>395</ele>
        <time>2023-04-26T15:17:03Z</time>
      </trkpt>
      <trkpt lat="43.58692" lon="6.22967">
        <ele>393</ele>
        <time>2023-04-26T15:17:18Z</time>
      </trkpt>
      <trkpt lat="43.58682" lon="6.22967">
        <ele>392</ele>
        <time>2023-04-26T15:17:28Z</time>
      </trkpt>
      <trkpt lat="43.58672" lon="6.22964">
        <ele>390</ele>
        <time>2023-04-26T15:17:38Z</time>
      </trkpt>
      <trkpt lat="43.5864" lon="6.22964">
        <ele>387</ele>
        <time>2023-04-26T15:18:21Z</time>
      </trkpt>
      <trkpt lat="43.58629" lon="6.22966">
        <ele>388</ele>
        <time>2023-04-26T15:18:47Z</time>
      </trkpt>
      <trkpt lat="43.58617" lon="6.22972">
        <ele>388</ele>
        <time>2023-04-26T15:19:18Z</time>
      </trkpt>
      <trkpt lat="43.58588" lon="6.22989">
        <ele>388</ele>
        <time>2023-04-26T15:19:53Z</time>
      </trkpt>
      <trkpt lat="43.58582" lon="6.22999">
        <ele>387</ele>
        <time>2023-04-26T15:20:03Z</time>
      </trkpt>
      <trkpt lat="43.58572" lon="6.23009">
        <ele>385</ele>
        <time>2023-04-26T15:20:38Z</time>
      </trkpt>
      <trkpt lat="43.58565" lon="6.23016">
        <ele>382</ele>
        <time>2023-04-26T15:20:48Z</time>
      </trkpt>
      <trkpt lat="43.58551" lon="6.23021">
        <ele>378</ele>
        <time>2023-04-26T15:21:05Z</time>
      </trkpt>
      <trkpt lat="43.58543" lon="6.23027">
        <ele>378</ele>
        <time>2023-04-26T15:22:05Z</time>
      </trkpt>
      <trkpt lat="43.58543" lon="6.2304">
        <ele>374</ele>
        <time>2023-04-26T15:22:50Z</time>
      </trkpt>
      <trkpt lat="43.58538" lon="6.23059">
        <ele>373</ele>
        <time>2023-04-26T15:23:08Z</time>
      </trkpt>
      <trkpt lat="43.58534" lon="6.23084">
        <ele>371</ele>
        <time>2023-04-26T15:23:31Z</time>
      </trkpt>
      <trkpt lat="43.58535" lon="6.23102">
        <ele>367</ele>
        <time>2023-04-26T15:24:08Z</time>
      </trkpt>
      <trkpt lat="43.58541" lon="6.23111">
        <ele>366</ele>
        <time>2023-04-26T15:24:31Z</time>
      </trkpt>
      <trkpt lat="43.58545" lon="6.23123">
        <ele>362</ele>
        <time>2023-04-26T15:24:46Z</time>
      </trkpt>
      <trkpt lat="43.58543" lon="6.23136">
        <ele>360</ele>
        <time>2023-04-26T15:25:11Z</time>
      </trkpt>
      <trkpt lat="43.58522" lon="6.23196">
        <ele>357</ele>
        <time>2023-04-26T15:26:15Z</time>
      </trkpt>
      <trkpt lat="43.58532" lon="6.23192">
        <ele>364</ele>
        <time>2023-04-26T15:27:15Z</time>
      </trkpt>
      <trkpt lat="43.58534" lon="6.23208">
        <ele>375</ele>
        <time>2023-04-26T15:28:43Z</time>
      </trkpt>
      <trkpt lat="43.58542" lon="6.2321">
        <ele>373</ele>
        <time>2023-04-26T15:29:52Z</time>
      </trkpt>
      <trkpt lat="43.58528" lon="6.23218">
        <ele>375</ele>
        <time>2023-04-26T15:35:23Z</time>
      </trkpt>
      <trkpt lat="43.5853" lon="6.23255">
        <ele>372</ele>
        <time>2023-04-26T15:36:13Z</time>
      </trkpt>
      <trkpt lat="43.58523" lon="6.23282">
        <ele>369</ele>
        <time>2023-04-26T15:36:33Z</time>
      </trkpt>
      <trkpt lat="43.58479" lon="6.23321">
        <ele>369</ele>
        <time>2023-04-26T15:37:18Z</time>
      </trkpt>
      <trkpt lat="43.58454" lon="6.23357">
        <ele>389</ele>
        <time>2023-04-26T15:38:17Z</time>
      </trkpt>
    </trkseg>
  </trk>
</gpx>